Lac Ste. Marie, Canada
Current Conditions -  °F | °C
As of 9:00 PM on Sunday 23 Nov 2014 (Local Time) from CYND Reporting Station
Haze Haze  
Wind Chill: 34°   Ceiling: 400
Heat Index: 39°   Visibility: 2mi
Dew Point: 39°   Wind: 7mph
Humidity: 100%   Direction: 90°E
Pressure: 29.92"   Gusts: NA
Location:  45.97°N, 75.93°W
Report Text: CYND 240200Z 09006KT 2SM BR BKN004 OVC040 04/04 A2992 RMK SF5SC3 LAST OBS/NEXT 241200 UTC SLP134
Loading
Personal Weather Stations






























Interactive Weather Map New forecast layout! Learn more

10-Day Weather Forecast

Advertisements
Track Severe Weather on mobile